sensor_id;sensor_type;location;lat;lon;timestamp;pressure;altitude;pressure_sealevel;temperature;humidity
37792;BME280;29527;55.766;37.570;2022-07-10T00:01:19;99381.16;;;19.34;67.35
37792;BME280;29527;55.766;37.570;2022-07-10T00:03:44;99375.06;;;19.32;66.32
37792;BME280;29527;55.766;37.570;2022-07-10T00:06:10;99367.50;;;19.28;66.44
37792;BME280;29527;55.766;37.570;2022-07-10T00:08:35;99364.69;;;19.21;66.45
37792;BME280;29527;55.766;37.570;2022-07-10T00:11:01;99366.31;;;19.15;67.00
37792;BME280;29527;55.766;37.570;2022-07-10T00:13:26;99352.56;;;19.17;66.84
37792;BME280;29527;55.766;37.570;2022-07-10T00:15:52;99352.72;;;19.15;67.88
37792;BME280;29527;55.766;37.570;2022-07-10T00:18:17;99353.59;;;19.16;68.18
37792;BME280;29527;55.766;37.570;2022-07-10T00:20:43;99349.84;;;19.17;68.83
37792;BME280;29527;55.766;37.570;2022-07-10T00:23:08;99314.41;;;19.03;69.37
37792;BME280;29527;55.766;37.570;2022-07-10T00:25:34;99326.63;;;19.14;69.84
37792;BME280;29527;55.766;37.570;2022-07-10T00:27:59;99324.56;;;19.16;70.00
37792;BME280;29527;55.766;37.570;2022-07-10T00:30:25;99325.25;;;19.18;70.58
37792;BME280;29527;55.766;37.570;2022-07-10T00:32:50;99329.00;;;19.17;70.78
37792;BME280;29527;55.766;37.570;2022-07-10T00:35:16;99323.34;;;19.19;71.29
37792;BME280;29527;55.766;37.570;2022-07-10T00:37:41;99321.50;;;19.19;71.71
37792;BME280;29527;55.766;37.570;2022-07-10T00:40:08;99325.69;;;19.22;72.03
37792;BME280;29527;55.766;37.570;2022-07-10T00:42:34;99310.19;;;19.16;71.80
37792;BME280;29527;55.766;37.570;2022-07-10T00:44:59;99326.13;;;19.26;67.19
37792;BME280;29527;55.766;37.570;2022-07-10T00:47:25;99328.00;;;19.25;69.84
37792;BME280;29527;55.766;37.570;2022-07-10T00:49:50;99326.22;;;19.32;66.49
37792;BME280;29527;55.766;37.570;2022-07-10T00:52:17;99327.50;;;19.36;68.11
37792;BME280;29527;55.766;37.570;2022-07-10T00:54:47;99341.91;;;19.37;68.15
37792;BME280;29527;55.766;37.570;2022-07-10T00:57:13;99348.56;;;19.34;69.11
37792;BME280;29527;55.766;37.570;2022-07-10T00:59:42;99309.78;;;19.19;67.90
37792;BME280;29527;55.766;37.570;2022-07-10T01:02:09;99314.31;;;19.33;66.90
37792;BME280;29527;55.766;37.570;2022-07-10T01:04:35;99319.09;;;19.31;68.40
37792;BME280;29527;55.766;37.570;2022-07-10T01:07:00;99326.06;;;19.19;68.48
37792;BME280;29527;55.766;37.570;2022-07-10T01:09:26;99326.13;;;19.26;66.95
37792;BME280;29527;55.766;37.570;2022-07-10T01:11:55;99321.03;;;19.16;68.22
37792;BME280;29527;55.766;37.570;2022-07-10T01:14:21;99299.00;;;19.04;69.55
37792;BME280;29527;55.766;37.570;2022-07-10T01:16:47;99292.78;;;19.10;68.79
37792;BME280;29527;55.766;37.570;2022-07-10T01:19:14;99292.59;;;19.12;69.52
37792;BME280;29527;55.766;37.570;2022-07-10T01:21:40;99291.31;;;19.07;70.33
37792;BME280;29527;55.766;37.570;2022-07-10T01:24:10;99275.41;;;19.04;70.96
37792;BME280;29527;55.766;37.570;2022-07-10T01:26:36;99284.97;;;19.00;70.60
37792;BME280;29527;55.766;37.570;2022-07-10T01:29:06;99299.16;;;19.02;70.19
37792;BME280;29527;55.766;37.570;2022-07-10T01:31:32;99295.34;;;18.97;70.77
37792;BME280;29527;55.766;37.570;2022-07-10T01:34:00;99304.31;;;18.97;69.84
37792;BME280;29527;55.766;37.570;2022-07-10T01:36:28;99295.34;;;18.97;67.81
37792;BME280;29527;55.766;37.570;2022-07-10T01:38:54;99283.84;;;18.94;65.76
37792;BME280;29527;55.766;37.570;2022-07-10T01:41:20;99288.38;;;19.09;66.29
37792;BME280;29527;55.766;37.570;2022-07-10T01:43:45;99290.53;;;19.14;65.52
37792;BME280;29527;55.766;37.570;2022-07-10T01:46:13;99284.31;;;19.20;66.03
37792;BME280;29527;55.766;37.570;2022-07-10T01:48:39;99276.41;;;19.18;66.38
37792;BME280;29527;55.766;37.570;2022-07-10T01:51:06;99280.19;;;19.24;68.14
37792;BME280;29527;55.766;37.570;2022-07-10T01:53:31;99261.00;;;19.26;65.69
37792;BME280;29527;55.766;37.570;2022-07-10T01:55:58;99267.97;;;19.35;64.53
37792;BME280;29527;55.766;37.570;2022-07-10T01:58:24;99261.91;;;19.33;65.46
37792;BME280;29527;55.766;37.570;2022-07-10T02:00:50;99251.94;;;19.40;65.22
37792;BME280;29527;55.766;37.570;2022-07-10T02:03:15;99258.84;;;19.43;65.24
37792;BME280;29527;55.766;37.570;2022-07-10T02:05:59;99253.66;;;19.48;67.09
37792;BME280;29527;55.766;37.570;2022-07-10T02:08:24;99267.47;;;19.46;66.62
37792;BME280;29527;55.766;37.570;2022-07-10T02:10:50;99233.66;;;19.27;64.12
37792;BME280;29527;55.766;37.570;2022-07-10T02:13:15;99269.53;;;19.44;64.90
37792;BME280;29527;55.766;37.570;2022-07-10T02:16:05;99253.31;;;19.29;64.88
37792;BME280;29527;55.766;37.570;2022-07-10T02:18:30;99273.84;;;19.39;64.95
37792;BME280;29527;55.766;37.570;2022-07-10T02:20:57;99279.88;;;19.34;64.51
37792;BME280;29527;55.766;37.570;2022-07-10T02:23:23;99268.44;;;19.39;64.46
37792;BME280;29527;55.766;37.570;2022-07-10T02:25:48;99266.53;;;19.39;64.66
37792;BME280;29527;55.766;37.570;2022-07-10T02:28:13;99273.94;;;19.45;64.56
37792;BME280;29527;55.766;37.570;2022-07-10T02:30:39;99276.66;;;19.52;64.37
37792;BME280;29527;55.766;37.570;2022-07-10T02:33:04;99283.72;;;19.68;63.31
37792;BME280;29527;55.766;37.570;2022-07-10T02:35:30;99293.03;;;19.87;62.92
37792;BME280;29527;55.766;37.570;2022-07-10T02:37:55;99292.44;;;20.20;60.92
37792;BME280;29527;55.766;37.570;2022-07-10T02:40:21;99290.75;;;20.55;60.09
37792;BME280;29527;55.766;37.570;2022-07-10T02:42:46;99290.09;;;20.94;59.48
37792;BME280;29527;55.766;37.570;2022-07-10T02:45:12;99291.44;;;21.39;58.52
37792;BME280;29527;55.766;37.570;2022-07-10T02:47:37;99295.22;;;21.78;56.82
37792;BME280;29527;55.766;37.570;2022-07-10T02:50:03;99294.75;;;22.15;55.17
37792;BME280;29527;55.766;37.570;2022-07-10T02:52:29;99293.88;;;22.48;54.43
37792;BME280;29527;55.766;37.570;2022-07-10T02:54:57;99293.59;;;22.63;53.48
37792;BME280;29527;55.766;37.570;2022-07-10T02:57:23;99292.94;;;22.68;53.52
37792;BME280;29527;55.766;37.570;2022-07-10T02:59:49;99297.91;;;22.78;52.40
37792;BME280;29527;55.766;37.570;2022-07-10T03:02:14;99285.31;;;22.84;52.73
37792;BME280;29527;55.766;37.570;2022-07-10T03:04:40;99288.00;;;22.90;52.09
37792;BME280;29527;55.766;37.570;2022-07-10T03:07:05;99283.41;;;22.91;51.58
37792;BME280;29527;55.766;37.570;2022-07-10T03:09:31;99271.91;;;22.75;51.99
37792;BME280;29527;55.766;37.570;2022-07-10T03:11:56;99293.03;;;22.87;52.48
37792;BME280;29527;55.766;37.570;2022-07-10T03:14:22;99293.94;;;23.13;51.97
37792;BME280;29527;55.766;37.570;2022-07-10T03:16:47;99286.78;;;23.25;51.22
37792;BME280;29527;55.766;37.570;2022-07-10T03:19:13;99284.66;;;23.27;51.13
37792;BME280;29527;55.766;37.570;2022-07-10T03:21:38;99304.19;;;23.24;51.14
37792;BME280;29527;55.766;37.570;2022-07-10T03:24:04;99305.25;;;23.23;51.32
37792;BME280;29527;55.766;37.570;2022-07-10T03:26:29;99296.88;;;23.18;51.49
37792;BME280;29527;55.766;37.570;2022-07-10T03:28:56;99299.84;;;23.09;51.83
37792;BME280;29527;55.766;37.570;2022-07-10T03:31:22;99292.72;;;23.08;52.11
37792;BME280;29527;55.766;37.570;2022-07-10T03:33:47;99288.16;;;23.02;51.61
37792;BME280;29527;55.766;37.570;2022-07-10T03:36:13;99286.13;;;22.91;52.22
37792;BME280;29527;55.766;37.570;2022-07-10T03:38:39;99288.28;;;22.75;52.75
37792;BME280;29527;55.766;37.570;2022-07-10T03:41:05;99274.25;;;22.65;52.86
37792;BME280;29527;55.766;37.570;2022-07-10T03:43:30;99302.72;;;22.83;52.80
37792;BME280;29527;55.766;37.570;2022-07-10T03:45:57;99278.47;;;22.68;53.25
37792;BME280;29527;55.766;37.570;2022-07-10T03:48:22;99290.41;;;22.73;53.01
37792;BME280;29527;55.766;37.570;2022-07-10T03:50:51;99305.91;;;22.73;53.51
37792;BME280;29527;55.766;37.570;2022-07-10T03:53:17;99313.13;;;22.54;53.73
37792;BME280;29527;55.766;37.570;2022-07-10T03:55:43;99299.53;;;22.47;53.23
37792;BME280;29527;55.766;37.570;2022-07-10T03:58:08;99295.97;;;22.33;53.76
37792;BME280;29527;55.766;37.570;2022-07-10T04:00:34;99288.09;;;21.98;54.95
37792;BME280;29527;55.766;37.570;2022-07-10T04:03:05;99285.16;;;21.72;56.00
37792;BME280;29527;55.766;37.570;2022-07-10T04:05:31;99271.31;;;21.54;56.76
37792;BME280;29527;55.766;37.570;2022-07-10T04:07:58;99271.09;;;21.55;56.80
37792;BME280;29527;55.766;37.570;2022-07-10T04:10:25;99262.31;;;21.67;56.73
37792;BME280;29527;55.766;37.570;2022-07-10T04:12:50;99248.28;;;21.70;56.63
37792;BME280;29527;55.766;37.570;2022-07-10T04:15:16;99228.78;;;21.59;57.49
37792;BME280;29527;55.766;37.570;2022-07-10T04:17:42;99215.38;;;21.51;54.94
37792;BME280;29527;55.766;37.570;2022-07-10T04:20:08;99242.81;;;21.70;54.02
37792;BME280;29527;55.766;37.570;2022-07-10T04:22:34;99245.78;;;21.75;53.98
37792;BME280;29527;55.766;37.570;2022-07-10T04:24:59;99245.53;;;21.83;54.05
37792;BME280;29527;55.766;37.570;2022-07-10T04:27:25;99233.56;;;21.98;53.96
37792;BME280;29527;55.766;37.570;2022-07-10T04:29:51;99240.00;;;22.23;53.30
37792;BME280;29527;55.766;37.570;2022-07-10T04:32:16;99229.63;;;22.53;52.46
37792;BME280;29527;55.766;37.570;2022-07-10T04:34:42;99233.53;;;22.70;52.21
37792;BME280;29527;55.766;37.570;2022-07-10T04:37:08;99235.28;;;22.90;51.96
37792;BME280;29527;55.766;37.570;2022-07-10T04:39:35;99234.50;;;23.15;51.15
37792;BME280;29527;55.766;37.570;2022-07-10T04:42:01;99234.66;;;23.52;50.56
37792;BME280;29527;55.766;37.570;2022-07-10T04:44:27;99231.38;;;24.31;48.98
37792;BME280;29527;55.766;37.570;2022-07-10T04:46:52;99231.78;;;25.39;46.27
37792;BME280;29527;55.766;37.570;2022-07-10T04:49:18;99231.47;;;26.47;43.56
37792;BME280;29527;55.766;37.570;2022-07-10T04:51:44;99229.56;;;27.06;42.70
37792;BME280;29527;55.766;37.570;2022-07-10T04:54:09;99225.38;;;27.32;41.21
37792;BME280;29527;55.766;37.570;2022-07-10T04:56:35;99217.03;;;27.27;41.11
37792;BME280;29527;55.766;37.570;2022-07-10T04:59:00;99218.34;;;27.25;41.44
37792;BME280;29527;55.766;37.570;2022-07-10T05:01:26;99219.78;;;27.61;40.98
37792;BME280;29527;55.766;37.570;2022-07-10T05:03:51;99222.81;;;28.88;38.75
37792;BME280;29527;55.766;37.570;2022-07-10T05:06:16;99229.56;;;30.75;34.96
37792;BME280;29527;55.766;37.570;2022-07-10T05:08:42;99220.47;;;31.73;32.48
37792;BME280;29527;55.766;37.570;2022-07-10T05:11:07;99212.56;;;32.27;31.89
37792;BME280;29527;55.766;37.570;2022-07-10T05:13:33;99206.13;;;33.32;30.74
37792;BME280;29527;55.766;37.570;2022-07-10T05:15:58;99198.56;;;34.02;29.04
37792;BME280;29527;55.766;37.570;2022-07-10T05:18:24;99195.50;;;34.66;27.66
37792;BME280;29527;55.766;37.570;2022-07-10T05:20:49;99193.53;;;35.05;26.69
37792;BME280;29527;55.766;37.570;2022-07-10T05:23:15;99216.63;;;34.86;27.05
37792;BME280;29527;55.766;37.570;2022-07-10T05:25:41;99211.81;;;34.29;27.78
37792;BME280;29527;55.766;37.570;2022-07-10T05:28:07;99212.66;;;33.76;28.76
37792;BME280;29527;55.766;37.570;2022-07-10T05:30:32;99208.94;;;33.61;28.88
37792;BME280;29527;55.766;37.570;2022-07-10T05:32:58;99183.81;;;33.77;28.73
37792;BME280;29527;55.766;37.570;2022-07-10T05:35:25;99183.22;;;34.04;28.30
37792;BME280;29527;55.766;37.570;2022-07-10T05:37:51;99206.63;;;34.66;27.55
37792;BME280;29527;55.766;37.570;2022-07-10T05:40:17;99195.00;;;35.49;26.61
37792;BME280;29527;55.766;37.570;2022-07-10T05:42:43;99197.03;;;35.91;25.78
37792;BME280;29527;55.766;37.570;2022-07-10T05:45:10;99200.03;;;36.37;25.11
37792;BME280;29527;55.766;37.570;2022-07-10T05:47:36;99202.22;;;35.84;25.71
37792;BME280;29527;55.766;37.570;2022-07-10T05:50:01;99203.50;;;36.70;25.04
37792;BME280;29527;55.766;37.570;2022-07-10T05:52:29;99223.34;;;38.23;22.67
37792;BME280;29527;55.766;37.570;2022-07-10T05:54:57;99227.72;;;39.26;21.95
37792;BME280;29527;55.766;37.570;2022-07-10T05:57:23;99235.19;;;38.96;21.38
37792;BME280;29527;55.766;37.570;2022-07-10T05:59:49;99225.91;;;37.70;23.16
37792;BME280;29527;55.766;37.570;2022-07-10T06:02:15;99215.28;;;36.39;24.56
37792;BME280;29527;55.766;37.570;2022-07-10T06:04:42;99217.34;;;35.91;25.54
37792;BME280;29527;55.766;37.570;2022-07-10T06:07:07;99210.91;;;36.10;25.38
37792;BME280;29527;55.766;37.570;2022-07-10T06:09:32;99218.50;;;35.90;25.81
37792;BME280;29527;55.766;37.570;2022-07-10T06:11:58;99210.97;;;35.91;26.11
37792;BME280;29527;55.766;37.570;2022-07-10T06:14:23;99217.66;;;36.97;24.47
37792;BME280;29527;55.766;37.570;2022-07-10T06:16:49;99207.44;;;39.29;21.72
37792;BME280;29527;55.766;37.570;2022-07-10T06:19:14;99218.00;;;40.58;19.94
37792;BME280;29527;55.766;37.570;2022-07-10T06:21:43;99219.00;;;42.34;18.14
37792;BME280;29527;55.766;37.570;2022-07-10T06:24:08;99223.53;;;43.94;16.48
37792;BME280;29527;55.766;37.570;2022-07-10T06:26:34;99219.06;;;44.80;15.44
37792;BME280;29527;55.766;37.570;2022-07-10T06:29:00;99224.94;;;44.91;15.45
37792;BME280;29527;55.766;37.570;2022-07-10T06:31:25;99221.78;;;43.00;17.27
37792;BME280;29527;55.766;37.570;2022-07-10T06:33:51;99227.22;;;40.58;19.44
37792;BME280;29527;55.766;37.570;2022-07-10T06:36:17;99217.16;;;38.53;21.96
37792;BME280;29527;55.766;37.570;2022-07-10T06:38:42;99219.81;;;38.00;23.07
37792;BME280;29527;55.766;37.570;2022-07-10T06:41:08;99207.97;;;38.79;21.95
37792;BME280;29527;55.766;37.570;2022-07-10T06:43:33;99205.13;;;38.43;22.69
37792;BME280;29527;55.766;37.570;2022-07-10T06:45:59;99207.69;;;36.82;24.01
37792;BME280;29527;55.766;37.570;2022-07-10T06:48:26;99215.38;;;35.31;26.11
37792;BME280;29527;55.766;37.570;2022-07-10T06:50:52;99225.69;;;34.29;27.76
37792;BME280;29527;55.766;37.570;2022-07-10T06:53:18;99221.59;;;33.09;29.41
37792;BME280;29527;55.766;37.570;2022-07-10T06:55:50;99224.50;;;32.27;31.38
37792;BME280;29527;55.766;37.570;2022-07-10T06:58:15;99234.00;;;31.95;31.23
37792;BME280;29527;55.766;37.570;2022-07-10T07:00:41;99233.22;;;31.79;31.78
37792;BME280;29527;55.766;37.570;2022-07-10T07:03:06;99212.41;;;32.02;30.68
37792;BME280;29527;55.766;37.570;2022-07-10T07:05:32;99207.59;;;32.24;31.18
37792;BME280;29527;55.766;37.570;2022-07-10T07:07:57;99209.34;;;32.70;30.61
37792;BME280;29527;55.766;37.570;2022-07-10T07:10:23;99205.66;;;32.90;30.01
37792;BME280;29527;55.766;37.570;2022-07-10T07:12:48;99202.72;;;33.11;29.15
37792;BME280;29527;55.766;37.570;2022-07-10T07:15:15;99217.69;;;33.10;28.68
37792;BME280;29527;55.766;37.570;2022-07-10T07:17:42;99224.72;;;32.97;28.77
37792;BME280;29527;55.766;37.570;2022-07-10T07:20:35;99223.16;;;34.76;26.16
37792;BME280;29527;55.766;37.570;2022-07-10T07:23:20;99219.34;;;37.20;23.17
37792;BME280;29527;55.766;37.570;2022-07-10T07:25:46;99220.16;;;39.09;21.12
37792;BME280;29527;55.766;37.570;2022-07-10T07:28:16;99217.47;;;40.65;19.05
37792;BME280;29527;55.766;37.570;2022-07-10T07:30:43;99228.06;;;42.68;17.51
37792;BME280;29527;55.766;37.570;2022-07-10T07:33:09;99223.06;;;43.92;16.12
37792;BME280;29527;55.766;37.570;2022-07-10T07:35:35;99228.53;;;44.88;14.99
37792;BME280;29527;55.766;37.570;2022-07-10T07:38:01;99232.59;;;45.10;14.53
37792;BME280;29527;55.766;37.570;2022-07-10T07:40:27;99207.78;;;44.80;14.76
37792;BME280;29527;55.766;37.570;2022-07-10T07:42:54;99242.50;;;45.63;14.30
37792;BME280;29527;55.766;37.570;2022-07-10T07:45:21;99228.66;;;46.55;13.30
37792;BME280;29527;55.766;37.570;2022-07-10T07:47:55;99232.22;;;46.25;13.69
37792;BME280;29527;55.766;37.570;2022-07-10T07:50:25;99236.69;;;45.76;14.08
37792;BME280;29527;55.766;37.570;2022-07-10T07:52:52;99247.00;;;45.44;14.00
37792;BME280;29527;55.766;37.570;2022-07-10T07:55:19;99229.16;;;45.40;14.13
37792;BME280;29527;55.766;37.570;2022-07-10T07:57:45;99222.13;;;45.73;13.71
37792;BME280;29527;55.766;37.570;2022-07-10T08:00:11;99237.63;;;45.21;14.43
37792;BME280;29527;55.766;37.570;2022-07-10T08:02:38;99215.97;;;44.50;14.39
37792;BME280;29527;55.766;37.570;2022-07-10T08:05:05;99227.13;;;42.77;16.09
37792;BME280;29527;55.766;37.570;2022-07-10T08:07:38;99219.91;;;41.09;18.36
37792;BME280;29527;55.766;37.570;2022-07-10T08:10:05;99221.00;;;39.01;20.03
37792;BME280;29527;55.766;37.570;2022-07-10T08:12:32;99211.06;;;37.61;22.46
37792;BME280;29527;55.766;37.570;2022-07-10T08:14:58;99183.41;;;36.45;22.76
37792;BME280;29527;55.766;37.570;2022-07-10T08:17:24;99191.88;;;35.70;24.17
37792;BME280;29527;55.766;37.570;2022-07-10T08:19:50;99208.03;;;35.21;24.98
37792;BME280;29527;55.766;37.570;2022-07-10T08:22:15;99200.78;;;34.48;25.96
37792;BME280;29527;55.766;37.570;2022-07-10T08:24:41;99222.53;;;34.17;26.67
37792;BME280;29527;55.766;37.570;2022-07-10T08:27:07;99223.84;;;34.00;27.10
37792;BME280;29527;55.766;37.570;2022-07-10T08:29:33;99219.41;;;33.70;27.63
37792;BME280;29527;55.766;37.570;2022-07-10T08:31:58;99218.34;;;33.66;27.98
37792;BME280;29527;55.766;37.570;2022-07-10T08:34:24;99209.63;;;33.77;28.43
37792;BME280;29527;55.766;37.570;2022-07-10T08:36:50;99204.19;;;33.91;27.61
37792;BME280;29527;55.766;37.570;2022-07-10T08:39:15;99215.69;;;33.79;27.69
37792;BME280;29527;55.766;37.570;2022-07-10T08:41:42;99215.69;;;33.50;27.89
37792;BME280;29527;55.766;37.570;2022-07-10T08:44:08;99207.00;;;33.62;27.67
37792;BME280;29527;55.766;37.570;2022-07-10T08:46:34;99202.59;;;33.85;27.60
37792;BME280;29527;55.766;37.570;2022-07-10T08:49:02;99194.16;;;33.96;27.36
37792;BME280;29527;55.766;37.570;2022-07-10T08:51:36;99208.22;;;34.29;26.50
37792;BME280;29527;55.766;37.570;2022-07-10T08:54:04;99175.84;;;34.19;26.13
37792;BME280;29527;55.766;37.570;2022-07-10T08:56:32;99202.50;;;34.39;26.07
37792;BME280;29527;55.766;37.570;2022-07-10T08:58:59;99200.41;;;34.31;25.79
37792;BME280;29527;55.766;37.570;2022-07-10T09:01:25;99195.50;;;34.22;26.46
37792;BME280;29527;55.766;37.570;2022-07-10T09:03:51;99188.19;;;34.32;25.88
37792;BME280;29527;55.766;37.570;2022-07-10T09:06:16;99196.06;;;34.44;25.04
37792;BME280;29527;55.766;37.570;2022-07-10T09:11:26;99195.88;;;34.16;25.44
37792;BME280;29527;55.766;37.570;2022-07-10T09:14:04;99205.25;;;34.01;25.49
37792;BME280;29527;55.766;37.570;2022-07-10T09:16:35;99210.56;;;33.33;26.19
37792;BME280;29527;55.766;37.570;2022-07-10T09:19:15;99211.25;;;33.19;26.24
37792;BME280;29527;55.766;37.570;2022-07-10T09:21:41;99160.50;;;32.39;27.50
37792;BME280;29527;55.766;37.570;2022-07-10T09:24:09;99182.63;;;32.44;27.46
37792;BME280;29527;55.766;37.570;2022-07-10T09:26:36;99183.16;;;32.46;27.54
37792;BME280;29527;55.766;37.570;2022-07-10T09:29:19;99180.16;;;32.83;27.27
37792;BME280;29527;55.766;37.570;2022-07-10T09:31:52;99175.75;;;32.76;27.33
37792;BME280;29527;55.766;37.570;2022-07-10T09:34:40;99189.28;;;32.88;27.27
37792;BME280;29527;55.766;37.570;2022-07-10T09:39:55;99190.72;;;32.81;27.48
37792;BME280;29527;55.766;37.570;2022-07-10T09:47:54;99150.72;;;31.91;28.25
37792;BME280;29527;55.766;37.570;2022-07-10T09:50:34;99192.22;;;31.76;28.17
37792;BME280;29527;55.766;37.570;2022-07-10T09:53:04;99138.66;;;30.89;29.40
37792;BME280;29527;55.766;37.570;2022-07-10T09:55:34;99176.81;;;30.87;29.99
37792;BME280;29527;55.766;37.570;2022-07-10T09:58:04;99171.81;;;30.73;30.45
37792;BME280;29527;55.766;37.570;2022-07-10T10:00:34;99159.34;;;30.71;30.55
37792;BME280;29527;55.766;37.570;2022-07-10T10:03:02;99165.97;;;30.64;30.98
37792;BME280;29527;55.766;37.570;2022-07-10T10:05:54;99162.13;;;30.65;30.23
37792;BME280;29527;55.766;37.570;2022-07-10T10:11:23;99149.34;;;30.49;30.43
37792;BME280;29527;55.766;37.570;2022-07-10T10:13:51;99132.75;;;30.39;31.57
37792;BME280;29527;55.766;37.570;2022-07-10T10:16:19;99139.41;;;30.43;31.50
37792;BME280;29527;55.766;37.570;2022-07-10T10:18:46;99129.19;;;30.43;31.62
37792;BME280;29527;55.766;37.570;2022-07-10T10:21:30;99130.31;;;30.53;31.90
37792;BME280;29527;55.766;37.570;2022-07-10T10:23:56;99146.88;;;30.47;31.31
37792;BME280;29527;55.766;37.570;2022-07-10T10:26:22;99142.16;;;30.38;31.10
37792;BME280;29527;55.766;37.570;2022-07-10T10:28:52;99133.25;;;30.20;31.50
37792;BME280;29527;55.766;37.570;2022-07-10T10:31:19;99126.88;;;30.09;31.41
37792;BME280;29527;55.766;37.570;2022-07-10T10:33:46;99116.38;;;30.11;31.71
37792;BME280;29527;55.766;37.570;2022-07-10T10:36:15;99130.00;;;30.33;31.14
37792;BME280;29527;55.766;37.570;2022-07-10T10:39:02;99137.47;;;30.43;31.17
37792;BME280;29527;55.766;37.570;2022-07-10T10:41:53;99126.41;;;30.38;31.41
37792;BME280;29527;55.766;37.570;2022-07-10T10:44:23;99143.50;;;30.30;31.13
37792;BME280;29527;55.766;37.570;2022-07-10T10:46:58;99129.16;;;30.33;30.59
37792;BME280;29527;55.766;37.570;2022-07-10T10:49:28;99119.75;;;30.24;29.49
37792;BME280;29527;55.766;37.570;2022-07-10T10:52:12;99124.47;;;30.28;29.45
37792;BME280;29527;55.766;37.570;2022-07-10T10:57:47;99127.47;;;30.27;29.31
37792;BME280;29527;55.766;37.570;2022-07-10T11:00:14;99137.91;;;30.14;29.40
37792;BME280;29527;55.766;37.570;2022-07-10T11:02:41;99123.63;;;30.22;29.61
37792;BME280;29527;55.766;37.570;2022-07-10T11:10:33;99120.13;;;31.05;28.00
37792;BME280;29527;55.766;37.570;2022-07-10T11:15:30;99131.41;;;31.60;27.28
37792;BME280;29527;55.766;37.570;2022-07-10T11:17:58;99132.50;;;31.70;27.57
37792;BME280;29527;55.766;37.570;2022-07-10T11:20:24;99123.06;;;31.71;27.15
37792;BME280;29527;55.766;37.570;2022-07-10T11:25:48;99122.19;;;31.91;27.21
37792;BME280;29527;55.766;37.570;2022-07-10T11:28:36;99123.78;;;32.07;27.25
37792;BME280;29527;55.766;37.570;2022-07-10T11:31:05;99107.69;;;32.20;26.50
37792;BME280;29527;55.766;37.570;2022-07-10T11:33:39;99138.03;;;32.41;26.20
37792;BME280;29527;55.766;37.570;2022-07-10T11:36:12;99134.44;;;32.40;26.22
37792;BME280;29527;55.766;37.570;2022-07-10T11:38:40;99135.25;;;32.41;26.66
37792;BME280;29527;55.766;37.570;2022-07-10T11:41:17;99130.88;;;32.34;26.01
37792;BME280;29527;55.766;37.570;2022-07-10T11:43:50;99138.06;;;32.30;26.59
37792;BME280;29527;55.766;37.570;2022-07-10T11:46:16;99133.94;;;32.22;26.68
37792;BME280;29527;55.766;37.570;2022-07-10T11:48:43;99133.38;;;32.36;26.67
37792;BME280;29527;55.766;37.570;2022-07-10T11:54:13;99141.69;;;32.76;26.47
37792;BME280;29527;55.766;37.570;2022-07-10T11:56:45;99131.50;;;32.66;26.52
37792;BME280;29527;55.766;37.570;2022-07-10T11:59:13;99128.78;;;32.61;26.80
37792;BME280;29527;55.766;37.570;2022-07-10T12:01:50;99111.06;;;32.57;26.31
37792;BME280;29527;55.766;37.570;2022-07-10T12:04:18;99119.06;;;32.58;26.63
37792;BME280;29527;55.766;37.570;2022-07-10T12:06:45;99124.09;;;32.56;26.87
37792;BME280;29527;55.766;37.570;2022-07-10T12:09:15;99118.91;;;32.44;26.95
37792;BME280;29527;55.766;37.570;2022-07-10T12:11:42;99115.63;;;32.32;27.24
37792;BME280;29527;55.766;37.570;2022-07-10T12:14:15;99118.75;;;32.20;27.19
37792;BME280;29527;55.766;37.570;2022-07-10T12:16:46;99117.72;;;32.05;27.62
37792;BME280;29527;55.766;37.570;2022-07-10T12:19:17;99116.88;;;32.05;27.46
37792;BME280;29527;55.766;37.570;2022-07-10T12:21:45;99108.22;;;32.17;27.89
37792;BME280;29527;55.766;37.570;2022-07-10T12:24:12;99113.53;;;32.13;27.53
37792;BME280;29527;55.766;37.570;2022-07-10T12:26:41;99117.03;;;32.29;27.76
37792;BME280;29527;55.766;37.570;2022-07-10T12:29:19;99101.75;;;32.42;27.85
37792;BME280;29527;55.766;37.570;2022-07-10T12:31:47;99114.78;;;32.36;27.36
37792;BME280;29527;55.766;37.570;2022-07-10T12:34:13;99082.72;;;32.25;27.40
37792;BME280;29527;55.766;37.570;2022-07-10T12:39:19;99079.72;;;32.16;27.37
37792;BME280;29527;55.766;37.570;2022-07-10T12:42:03;99074.84;;;31.98;27.70
37792;BME280;29527;55.766;37.570;2022-07-10T12:47:07;99075.78;;;31.62;27.99
37792;BME280;29527;55.766;37.570;2022-07-10T12:55:15;99069.31;;;31.92;28.03
37792;BME280;29527;55.766;37.570;2022-07-10T12:57:53;99068.44;;;32.02;27.93
37792;BME280;29527;55.766;37.570;2022-07-10T13:00:29;99062.06;;;32.02;28.02
37792;BME280;29527;55.766;37.570;2022-07-10T13:03:04;99060.72;;;31.94;27.64
37792;BME280;29527;55.766;37.570;2022-07-10T13:05:32;99054.97;;;31.80;27.29
37792;BME280;29527;55.766;37.570;2022-07-10T13:08:24;99063.28;;;31.85;27.67
37792;BME280;29527;55.766;37.570;2022-07-10T13:10:55;99053.66;;;31.62;28.44
37792;BME280;29527;55.766;37.570;2022-07-10T13:13:21;99062.78;;;31.57;28.34
37792;BME280;29527;55.766;37.570;2022-07-10T13:15:48;99052.84;;;31.61;28.86
37792;BME280;29527;55.766;37.570;2022-07-10T13:18:23;99053.06;;;31.81;28.08
37792;BME280;29527;55.766;37.570;2022-07-10T13:20:52;99054.09;;;31.90;27.98
37792;BME280;29527;55.766;37.570;2022-07-10T13:23:18;99044.53;;;31.67;28.13
37792;BME280;29527;55.766;37.570;2022-07-10T13:25:48;99051.72;;;31.62;27.81
37792;BME280;29527;55.766;37.570;2022-07-10T13:28:15;99051.19;;;31.60;27.86
37792;BME280;29527;55.766;37.570;2022-07-10T13:30:42;99055.06;;;31.54;27.64
37792;BME280;29527;55.766;37.570;2022-07-10T13:33:08;99011.19;;;31.21;27.87
37792;BME280;29527;55.766;37.570;2022-07-10T13:35:34;99050.66;;;31.53;28.30